sensor_id;sensor_type;location;lat;lon;timestamp;pressure;altitude;pressure_sealevel;temperature
12854;BMP180;6495;51.808;7.478;2023-07-31T00:02:16;100594.00;;;18.10
12854;BMP180;6495;51.808;7.478;2023-07-31T00:04:45;100581.00;;;18.10
12854;BMP180;6495;51.808;7.478;2023-07-31T00:07:14;100589.00;;;18.00
12854;BMP180;6495;51.808;7.478;2023-07-31T00:09:42;100586.00;;;18.10
12854;BMP180;6495;51.808;7.478;2023-07-31T00:12:10;100581.00;;;18.10
12854;BMP180;6495;51.808;7.478;2023-07-31T00:14:38;100572.00;;;18.00
12854;BMP180;6495;51.808;7.478;2023-07-31T00:17:06;100573.00;;;18.00
12854;BMP180;6495;51.808;7.478;2023-07-31T00:19:34;100574.00;;;18.00
12854;BMP180;6495;51.808;7.478;2023-07-31T00:22:05;100563.00;;;18.00
12854;BMP180;6495;51.808;7.478;2023-07-31T00:24:33;100565.00;;;18.00
12854;BMP180;6495;51.808;7.478;2023-07-31T00:27:01;100552.00;;;18.00
12854;BMP180;6495;51.808;7.478;2023-07-31T00:29:29;100561.00;;;18.00
12854;BMP180;6495;51.808;7.478;2023-07-31T00:31:57;100561.00;;;17.90
12854;BMP180;6495;51.808;7.478;2023-07-31T00:34:26;100548.00;;;17.90
12854;BMP180;6495;51.808;7.478;2023-07-31T00:36:55;100550.00;;;17.90
12854;BMP180;6495;51.808;7.478;2023-07-31T00:39:25;100553.00;;;17.90
12854;BMP180;6495;51.808;7.478;2023-07-31T00:41:53;100554.00;;;17.90
12854;BMP180;6495;51.808;7.478;2023-07-31T00:44:21;100555.00;;;17.90
12854;BMP180;6495;51.808;7.478;2023-07-31T00:46:49;100548.00;;;17.90
12854;BMP180;6495;51.808;7.478;2023-07-31T00:49:18;100545.00;;;17.90
12854;BMP180;6495;51.808;7.478;2023-07-31T00:51:46;100541.00;;;17.80
12854;BMP180;6495;51.808;7.478;2023-07-31T00:54:15;100537.00;;;17.80
12854;BMP180;6495;51.808;7.478;2023-07-31T00:56:46;100533.00;;;17.80
12854;BMP180;6495;51.808;7.478;2023-07-31T00:59:15;100537.00;;;17.80
12854;BMP180;6495;51.808;7.478;2023-07-31T01:01:46;100527.00;;;17.80
12854;BMP180;6495;51.808;7.478;2023-07-31T01:04:15;100528.00;;;17.80
12854;BMP180;6495;51.808;7.478;2023-07-31T01:06:51;100520.00;;;17.80
12854;BMP180;6495;51.808;7.478;2023-07-31T01:09:29;100524.00;;;17.80
12854;BMP180;6495;51.808;7.478;2023-07-31T01:12:07;100524.00;;;17.80
12854;BMP180;6495;51.808;7.478;2023-07-31T01:14:35;100517.00;;;17.80
12854;BMP180;6495;51.808;7.478;2023-07-31T01:17:04;100518.00;;;17.70
12854;BMP180;6495;51.808;7.478;2023-07-31T01:19:32;100513.00;;;17.70
12854;BMP180;6495;51.808;7.478;2023-07-31T01:22:25;100509.00;;;17.70
12854;BMP180;6495;51.808;7.478;2023-07-31T01:25:07;100495.00;;;17.70
12854;BMP180;6495;51.808;7.478;2023-07-31T01:27:51;100507.00;;;17.60
12854;BMP180;6495;51.808;7.478;2023-07-31T01:30:26;100506.00;;;17.70
12854;BMP180;6495;51.808;7.478;2023-07-31T01:32:57;100507.00;;;17.60
12854;BMP180;6495;51.808;7.478;2023-07-31T01:35:26;100500.00;;;17.70
12854;BMP180;6495;51.808;7.478;2023-07-31T01:37:54;100497.00;;;17.70
12854;BMP180;6495;51.808;7.478;2023-07-31T01:40:22;100492.00;;;17.60
12854;BMP180;6495;51.808;7.478;2023-07-31T01:42:52;100486.00;;;17.60
12854;BMP180;6495;51.808;7.478;2023-07-31T01:45:20;100490.00;;;17.60
12854;BMP180;6495;51.808;7.478;2023-07-31T01:47:48;100478.00;;;17.60
12854;BMP180;6495;51.808;7.478;2023-07-31T01:50:17;100481.00;;;17.60
12854;BMP180;6495;51.808;7.478;2023-07-31T01:52:45;100474.00;;;17.60
12854;BMP180;6495;51.808;7.478;2023-07-31T01:55:13;100472.00;;;17.60
12854;BMP180;6495;51.808;7.478;2023-07-31T01:57:42;100479.00;;;17.60
12854;BMP180;6495;51.808;7.478;2023-07-31T02:00:16;100472.00;;;17.60
12854;BMP180;6495;51.808;7.478;2023-07-31T02:02:45;100465.00;;;17.50
12854;BMP180;6495;51.808;7.478;2023-07-31T02:05:13;100477.00;;;17.50
12854;BMP180;6495;51.808;7.478;2023-07-31T02:07:42;100462.00;;;17.50
12854;BMP180;6495;51.808;7.478;2023-07-31T02:10:10;100476.00;;;17.50
12854;BMP180;6495;51.808;7.478;2023-07-31T02:12:39;100474.00;;;17.50
12854;BMP180;6495;51.808;7.478;2023-07-31T02:15:08;100474.00;;;17.60
12854;BMP180;6495;51.808;7.478;2023-07-31T02:17:37;100470.00;;;17.60
12854;BMP180;6495;51.808;7.478;2023-07-31T02:20:08;100475.00;;;17.60
12854;BMP180;6495;51.808;7.478;2023-07-31T02:35:15;100458.00;;;17.50
12854;BMP180;6495;51.808;7.478;2023-07-31T02:37:43;100469.00;;;17.50
12854;BMP180;6495;51.808;7.478;2023-07-31T02:40:12;100473.00;;;17.50
12854;BMP180;6495;51.808;7.478;2023-07-31T02:42:40;100459.00;;;17.50
12854;BMP180;6495;51.808;7.478;2023-07-31T02:45:09;100461.00;;;17.50
12854;BMP180;6495;51.808;7.478;2023-07-31T02:47:37;100452.00;;;17.50
12854;BMP180;6495;51.808;7.478;2023-07-31T02:55:53;100462.00;;;17.50
12854;BMP180;6495;51.808;7.478;2023-07-31T02:58:21;100458.00;;;17.50
12854;BMP180;6495;51.808;7.478;2023-07-31T03:00:49;100454.00;;;17.60
12854;BMP180;6495;51.808;7.478;2023-07-31T03:03:18;100456.00;;;17.60
12854;BMP180;6495;51.808;7.478;2023-07-31T03:05:46;100458.00;;;17.60
12854;BMP180;6495;51.808;7.478;2023-07-31T03:08:15;100455.00;;;17.60
12854;BMP180;6495;51.808;7.478;2023-07-31T03:10:43;100443.00;;;17.60
12854;BMP180;6495;51.808;7.478;2023-07-31T03:13:13;100456.00;;;17.60
12854;BMP180;6495;51.808;7.478;2023-07-31T03:15:42;100458.00;;;17.50
12854;BMP180;6495;51.808;7.478;2023-07-31T03:18:10;100453.00;;;17.50
12854;BMP180;6495;51.808;7.478;2023-07-31T03:20:42;100456.00;;;17.60
12854;BMP180;6495;51.808;7.478;2023-07-31T03:23:10;100452.00;;;17.50
12854;BMP180;6495;51.808;7.478;2023-07-31T03:25:42;100447.00;;;17.50
12854;BMP180;6495;51.808;7.478;2023-07-31T03:28:24;100455.00;;;17.50
12854;BMP180;6495;51.808;7.478;2023-07-31T03:30:53;100452.00;;;17.50
12854;BMP180;6495;51.808;7.478;2023-07-31T03:33:21;100464.00;;;17.50
12854;BMP180;6495;51.808;7.478;2023-07-31T03:35:50;100455.00;;;17.50
12854;BMP180;6495;51.808;7.478;2023-07-31T03:38:19;100458.00;;;17.50
12854;BMP180;6495;51.808;7.478;2023-07-31T03:40:47;100462.00;;;17.50
12854;BMP180;6495;51.808;7.478;2023-07-31T03:43:15;100453.00;;;17.50
12854;BMP180;6495;51.808;7.478;2023-07-31T03:45:45;100451.00;;;17.50
12854;BMP180;6495;51.808;7.478;2023-07-31T03:48:15;100458.00;;;17.50
12854;BMP180;6495;51.808;7.478;2023-07-31T03:50:43;100458.00;;;17.50
12854;BMP180;6495;51.808;7.478;2023-07-31T03:53:11;100453.00;;;17.50
12854;BMP180;6495;51.808;7.478;2023-07-31T03:55:40;100459.00;;;17.50
12854;BMP180;6495;51.808;7.478;2023-07-31T03:58:08;100454.00;;;17.50
12854;BMP180;6495;51.808;7.478;2023-07-31T04:00:36;100455.00;;;17.50
12854;BMP180;6495;51.808;7.478;2023-07-31T04:03:05;100454.00;;;17.50
12854;BMP180;6495;51.808;7.478;2023-07-31T04:05:38;100449.00;;;17.50
12854;BMP180;6495;51.808;7.478;2023-07-31T04:08:06;100451.00;;;17.50
12854;BMP180;6495;51.808;7.478;2023-07-31T04:10:34;100450.00;;;17.50
12854;BMP180;6495;51.808;7.478;2023-07-31T04:13:02;100448.00;;;17.50
12854;BMP180;6495;51.808;7.478;2023-07-31T04:15:33;100446.00;;;17.50
12854;BMP180;6495;51.808;7.478;2023-07-31T04:18:05;100453.00;;;17.40
12854;BMP180;6495;51.808;7.478;2023-07-31T04:20:34;100447.00;;;17.50
12854;BMP180;6495;51.808;7.478;2023-07-31T04:23:02;100444.00;;;17.50
12854;BMP180;6495;51.808;7.478;2023-07-31T04:25:30;100450.00;;;17.50
12854;BMP180;6495;51.808;7.478;2023-07-31T04:28:00;100457.00;;;17.50
12854;BMP180;6495;51.808;7.478;2023-07-31T04:30:29;100452.00;;;17.50
12854;BMP180;6495;51.808;7.478;2023-07-31T04:32:57;100444.00;;;17.50
12854;BMP180;6495;51.808;7.478;2023-07-31T04:35:28;100444.00;;;17.50
12854;BMP180;6495;51.808;7.478;2023-07-31T04:37:56;100451.00;;;17.50
12854;BMP180;6495;51.808;7.478;2023-07-31T04:40:24;100441.00;;;17.50
12854;BMP180;6495;51.808;7.478;2023-07-31T04:42:52;100431.00;;;17.50
12854;BMP180;6495;51.808;7.478;2023-07-31T04:45:20;100445.00;;;17.50
12854;BMP180;6495;51.808;7.478;2023-07-31T04:47:48;100444.00;;;17.50
12854;BMP180;6495;51.808;7.478;2023-07-31T04:50:16;100442.00;;;17.60
12854;BMP180;6495;51.808;7.478;2023-07-31T04:52:46;100443.00;;;17.60
12854;BMP180;6495;51.808;7.478;2023-07-31T04:55:14;100447.00;;;17.60
12854;BMP180;6495;51.808;7.478;2023-07-31T04:57:42;100440.00;;;17.60
12854;BMP180;6495;51.808;7.478;2023-07-31T05:00:11;100433.00;;;17.60
12854;BMP180;6495;51.808;7.478;2023-07-31T05:02:39;100435.00;;;17.60
12854;BMP180;6495;51.808;7.478;2023-07-31T05:05:08;100441.00;;;17.70
12854;BMP180;6495;51.808;7.478;2023-07-31T05:07:36;100444.00;;;17.60
12854;BMP180;6495;51.808;7.478;2023-07-31T05:10:07;100437.00;;;17.60
12854;BMP180;6495;51.808;7.478;2023-07-31T05:12:36;100434.00;;;17.60
12854;BMP180;6495;51.808;7.478;2023-07-31T05:15:05;100430.00;;;17.70
12854;BMP180;6495;51.808;7.478;2023-07-31T05:17:34;100437.00;;;17.70
12854;BMP180;6495;51.808;7.478;2023-07-31T05:20:02;100425.00;;;17.70
12854;BMP180;6495;51.808;7.478;2023-07-31T05:22:30;100425.00;;;17.70
12854;BMP180;6495;51.808;7.478;2023-07-31T05:24:58;100421.00;;;17.70
12854;BMP180;6495;51.808;7.478;2023-07-31T05:27:28;100423.00;;;17.80
12854;BMP180;6495;51.808;7.478;2023-07-31T05:29:56;100420.00;;;17.80
12854;BMP180;6495;51.808;7.478;2023-07-31T05:32:24;100410.00;;;17.80
12854;BMP180;6495;51.808;7.478;2023-07-31T05:34:53;100422.00;;;17.80
12854;BMP180;6495;51.808;7.478;2023-07-31T05:37:21;100417.00;;;17.80
12854;BMP180;6495;51.808;7.478;2023-07-31T05:39:49;100411.00;;;17.80
12854;BMP180;6495;51.808;7.478;2023-07-31T05:42:18;100410.00;;;17.90
12854;BMP180;6495;51.808;7.478;2023-07-31T05:44:48;100415.00;;;17.90
12854;BMP180;6495;51.808;7.478;2023-07-31T05:47:16;100406.00;;;18.00
12854;BMP180;6495;51.808;7.478;2023-07-31T05:49:44;100409.00;;;18.00
12854;BMP180;6495;51.808;7.478;2023-07-31T05:52:12;100412.00;;;18.00
12854;BMP180;6495;51.808;7.478;2023-07-31T05:54:41;100401.00;;;18.00
12854;BMP180;6495;51.808;7.478;2023-07-31T05:57:09;100392.00;;;18.00
12854;BMP180;6495;51.808;7.478;2023-07-31T05:59:37;100397.00;;;18.10
12854;BMP180;6495;51.808;7.478;2023-07-31T06:02:07;100391.00;;;18.10
12854;BMP180;6495;51.808;7.478;2023-07-31T06:04:35;100386.00;;;18.10
12854;BMP180;6495;51.808;7.478;2023-07-31T06:07:05;100387.00;;;18.10
12854;BMP180;6495;51.808;7.478;2023-07-31T06:09:33;100387.00;;;18.10
12854;BMP180;6495;51.808;7.478;2023-07-31T06:12:02;100389.00;;;18.10
12854;BMP180;6495;51.808;7.478;2023-07-31T06:14:30;100391.00;;;18.10
12854;BMP180;6495;51.808;7.478;2023-07-31T06:16:58;100382.00;;;18.10
12854;BMP180;6495;51.808;7.478;2023-07-31T06:19:27;100384.00;;;18.10
12854;BMP180;6495;51.808;7.478;2023-07-31T06:21:55;100368.00;;;18.10
12854;BMP180;6495;51.808;7.478;2023-07-31T06:24:23;100374.00;;;18.10
12854;BMP180;6495;51.808;7.478;2023-07-31T06:26:51;100368.00;;;18.20
12854;BMP180;6495;51.808;7.478;2023-07-31T06:29:20;100364.00;;;18.20
12854;BMP180;6495;51.808;7.478;2023-07-31T06:31:48;100377.00;;;18.20
12854;BMP180;6495;51.808;7.478;2023-07-31T06:34:16;100366.00;;;18.20
12854;BMP180;6495;51.808;7.478;2023-07-31T06:36:46;100363.00;;;18.20
12854;BMP180;6495;51.808;7.478;2023-07-31T06:39:14;100368.00;;;18.10
12854;BMP180;6495;51.808;7.478;2023-07-31T06:41:43;100363.00;;;18.10
12854;BMP180;6495;51.808;7.478;2023-07-31T06:44:12;100373.00;;;18.00
12854;BMP180;6495;51.808;7.478;2023-07-31T06:46:40;100366.00;;;18.00
12854;BMP180;6495;51.808;7.478;2023-07-31T06:49:08;100372.00;;;18.00
12854;BMP180;6495;51.808;7.478;2023-07-31T06:51:36;100368.00;;;18.00
12854;BMP180;6495;51.808;7.478;2023-07-31T06:54:07;100381.00;;;18.00
12854;BMP180;6495;51.808;7.478;2023-07-31T06:56:36;100390.00;;;18.10
12854;BMP180;6495;51.808;7.478;2023-07-31T06:59:08;100399.00;;;18.10
12854;BMP180;6495;51.808;7.478;2023-07-31T07:01:36;100388.00;;;18.10
12854;BMP180;6495;51.808;7.478;2023-07-31T07:04:04;100388.00;;;18.10
12854;BMP180;6495;51.808;7.478;2023-07-31T07:06:32;100382.00;;;18.10
12854;BMP180;6495;51.808;7.478;2023-07-31T07:09:01;100380.00;;;18.10
12854;BMP180;6495;51.808;7.478;2023-07-31T07:11:31;100376.00;;;18.10
12854;BMP180;6495;51.808;7.478;2023-07-31T07:13:59;100375.00;;;18.10
12854;BMP180;6495;51.808;7.478;2023-07-31T07:16:28;100373.00;;;18.10
12854;BMP180;6495;51.808;7.478;2023-07-31T07:18:57;100374.00;;;18.10
12854;BMP180;6495;51.808;7.478;2023-07-31T07:21:31;100362.00;;;18.20
12854;BMP180;6495;51.808;7.478;2023-07-31T07:23:59;100361.00;;;18.20
12854;BMP180;6495;51.808;7.478;2023-07-31T07:26:27;100360.00;;;18.20
12854;BMP180;6495;51.808;7.478;2023-07-31T07:28:57;100361.00;;;18.20
12854;BMP180;6495;51.808;7.478;2023-07-31T07:31:27;100357.00;;;18.20
12854;BMP180;6495;51.808;7.478;2023-07-31T07:33:56;100349.00;;;18.20
12854;BMP180;6495;51.808;7.478;2023-07-31T07:36:24;100346.00;;;18.20
12854;BMP180;6495;51.808;7.478;2023-07-31T07:38:52;100360.00;;;18.10
12854;BMP180;6495;51.808;7.478;2023-07-31T07:41:20;100352.00;;;18.10
12854;BMP180;6495;51.808;7.478;2023-07-31T07:43:48;100351.00;;;18.10
12854;BMP180;6495;51.808;7.478;2023-07-31T07:46:18;100346.00;;;18.10
12854;BMP180;6495;51.808;7.478;2023-07-31T07:48:46;100339.00;;;18.10
12854;BMP180;6495;51.808;7.478;2023-07-31T07:51:14;100344.00;;;18.00
12854;BMP180;6495;51.808;7.478;2023-07-31T07:53:42;100338.00;;;18.00
12854;BMP180;6495;51.808;7.478;2023-07-31T07:56:10;100337.00;;;18.00
12854;BMP180;6495;51.808;7.478;2023-07-31T07:58:38;100339.00;;;18.00
12854;BMP180;6495;51.808;7.478;2023-07-31T08:01:06;100340.00;;;18.00
12854;BMP180;6495;51.808;7.478;2023-07-31T08:03:36;100335.00;;;18.10
12854;BMP180;6495;51.808;7.478;2023-07-31T08:06:04;100333.00;;;18.10
12854;BMP180;6495;51.808;7.478;2023-07-31T08:08:32;100319.00;;;18.10
12854;BMP180;6495;51.808;7.478;2023-07-31T08:11:04;100321.00;;;18.10
12854;BMP180;6495;51.808;7.478;2023-07-31T08:13:32;100323.00;;;18.10
12854;BMP180;6495;51.808;7.478;2023-07-31T08:16:00;100318.00;;;18.10
12854;BMP180;6495;51.808;7.478;2023-07-31T08:18:28;100306.00;;;18.00
12854;BMP180;6495;51.808;7.478;2023-07-31T08:20:58;100311.00;;;18.00
12854;BMP180;6495;51.808;7.478;2023-07-31T08:23:28;100306.00;;;18.00
12854;BMP180;6495;51.808;7.478;2023-07-31T08:25:56;100305.00;;;18.00
12854;BMP180;6495;51.808;7.478;2023-07-31T08:28:26;100307.00;;;18.00
12854;BMP180;6495;51.808;7.478;2023-07-31T08:30:54;100303.00;;;18.00
12854;BMP180;6495;51.808;7.478;2023-07-31T08:33:23;100294.00;;;18.00
12854;BMP180;6495;51.808;7.478;2023-07-31T08:35:51;100291.00;;;18.00
12854;BMP180;6495;51.808;7.478;2023-07-31T08:38:20;100301.00;;;18.00
12854;BMP180;6495;51.808;7.478;2023-07-31T08:40:52;100302.00;;;18.00
12854;BMP180;6495;51.808;7.478;2023-07-31T08:43:22;100289.00;;;18.00
12854;BMP180;6495;51.808;7.478;2023-07-31T08:45:54;100289.00;;;18.00
12854;BMP180;6495;51.808;7.478;2023-07-31T08:48:23;100286.00;;;18.00
12854;BMP180;6495;51.808;7.478;2023-07-31T08:50:52;100290.00;;;18.00
12854;BMP180;6495;51.808;7.478;2023-07-31T08:53:22;100282.00;;;18.00
12854;BMP180;6495;51.808;7.478;2023-07-31T08:55:52;100292.00;;;18.00
12854;BMP180;6495;51.808;7.478;2023-07-31T08:58:21;100280.00;;;18.10
12854;BMP180;6495;51.808;7.478;2023-07-31T09:00:52;100292.00;;;18.10
12854;BMP180;6495;51.808;7.478;2023-07-31T09:03:25;100291.00;;;18.10
12854;BMP180;6495;51.808;7.478;2023-07-31T09:05:56;100290.00;;;18.10
12854;BMP180;6495;51.808;7.478;2023-07-31T09:11:02;100298.00;;;18.10
12854;BMP180;6495;51.808;7.478;2023-07-31T09:13:32;100296.00;;;18.10
12854;BMP180;6495;51.808;7.478;2023-07-31T09:16:00;100288.00;;;18.10
12854;BMP180;6495;51.808;7.478;2023-07-31T09:18:28;100292.00;;;18.10
12854;BMP180;6495;51.808;7.478;2023-07-31T09:21:04;100292.00;;;18.10
12854;BMP180;6495;51.808;7.478;2023-07-31T09:23:45;100295.00;;;18.00
12854;BMP180;6495;51.808;7.478;2023-07-31T09:26:30;100297.00;;;18.00
12854;BMP180;6495;51.808;7.478;2023-07-31T09:28:59;100289.00;;;18.00
12854;BMP180;6495;51.808;7.478;2023-07-31T09:31:40;100296.00;;;18.00
12854;BMP180;6495;51.808;7.478;2023-07-31T09:34:09;100292.00;;;18.00
12854;BMP180;6495;51.808;7.478;2023-07-31T09:36:41;100282.00;;;18.00
12854;BMP180;6495;51.808;7.478;2023-07-31T09:39:13;100287.00;;;18.00
12854;BMP180;6495;51.808;7.478;2023-07-31T09:41:44;100284.00;;;18.00
12854;BMP180;6495;51.808;7.478;2023-07-31T09:44:13;100285.00;;;18.00
12854;BMP180;6495;51.808;7.478;2023-07-31T09:46:41;100279.00;;;18.00
12854;BMP180;6495;51.808;7.478;2023-07-31T09:49:13;100284.00;;;18.00
12854;BMP180;6495;51.808;7.478;2023-07-31T09:51:42;100271.00;;;18.00
12854;BMP180;6495;51.808;7.478;2023-07-31T09:54:13;100265.00;;;18.00
12854;BMP180;6495;51.808;7.478;2023-07-31T09:56:44;100271.00;;;18.10
12854;BMP180;6495;51.808;7.478;2023-07-31T09:59:14;100266.00;;;18.10
12854;BMP180;6495;51.808;7.478;2023-07-31T10:01:46;100268.00;;;18.10
12854;BMP180;6495;51.808;7.478;2023-07-31T10:04:15;100272.00;;;18.10
12854;BMP180;6495;51.808;7.478;2023-07-31T10:06:48;100256.00;;;18.20
12854;BMP180;6495;51.808;7.478;2023-07-31T10:09:24;100272.00;;;18.20
12854;BMP180;6495;51.808;7.478;2023-07-31T10:12:00;100261.00;;;18.20
12854;BMP180;6495;51.808;7.478;2023-07-31T10:14:30;100267.00;;;18.20
12854;BMP180;6495;51.808;7.478;2023-07-31T10:16:59;100264.00;;;18.20
12854;BMP180;6495;51.808;7.478;2023-07-31T10:19:29;100257.00;;;18.20
12854;BMP180;6495;51.808;7.478;2023-07-31T10:22:00;100265.00;;;18.20
12854;BMP180;6495;51.808;7.478;2023-07-31T10:24:32;100258.00;;;18.20
12854;BMP180;6495;51.808;7.478;2023-07-31T10:27:02;100260.00;;;18.20
12854;BMP180;6495;51.808;7.478;2023-07-31T10:29:31;100263.00;;;18.20
12854;BMP180;6495;51.808;7.478;2023-07-31T10:32:01;100260.00;;;18.30
12854;BMP180;6495;51.808;7.478;2023-07-31T10:34:30;100266.00;;;18.20
12854;BMP180;6495;51.808;7.478;2023-07-31T10:37:20;100260.00;;;18.20
12854;BMP180;6495;51.808;7.478;2023-07-31T10:39:59;100264.00;;;18.30
12854;BMP180;6495;51.808;7.478;2023-07-31T10:42:33;100267.00;;;18.30
12854;BMP180;6495;51.808;7.478;2023-07-31T10:45:04;100257.00;;;18.30
12854;BMP180;6495;51.808;7.478;2023-07-31T10:47:37;100261.00;;;18.30
12854;BMP180;6495;51.808;7.478;2023-07-31T10:50:20;100261.00;;;18.40
12854;BMP180;6495;51.808;7.478;2023-07-31T10:52:52;100253.00;;;18.40
12854;BMP180;6495;51.808;7.478;2023-07-31T10:55:31;100247.00;;;18.40
12854;BMP180;6495;51.808;7.478;2023-07-31T10:58:06;100250.00;;;18.40
12854;BMP180;6495;51.808;7.478;2023-07-31T11:00:38;100245.00;;;18.40
12854;BMP180;6495;51.808;7.478;2023-07-31T11:03:09;100255.00;;;18.40
12854;BMP180;6495;51.808;7.478;2023-07-31T11:06:01;100255.00;;;18.50
12854;BMP180;6495;51.808;7.478;2023-07-31T11:08:32;100255.00;;;18.50
12854;BMP180;6495;51.808;7.478;2023-07-31T11:11:10;100257.00;;;18.50
12854;BMP180;6495;51.808;7.478;2023-07-31T11:13:44;100261.00;;;18.50
12854;BMP180;6495;51.808;7.478;2023-07-31T11:16:13;100243.00;;;18.50
12854;BMP180;6495;51.808;7.478;2023-07-31T11:18:44;100249.00;;;18.50
12854;BMP180;6495;51.808;7.478;2023-07-31T11:21:13;100252.00;;;18.60
12854;BMP180;6495;51.808;7.478;2023-07-31T11:23:46;100249.00;;;18.60
12854;BMP180;6495;51.808;7.478;2023-07-31T11:26:17;100250.00;;;18.60
12854;BMP180;6495;51.808;7.478;2023-07-31T11:28:47;100246.00;;;18.60
12854;BMP180;6495;51.808;7.478;2023-07-31T11:31:16;100248.00;;;18.60
12854;BMP180;6495;51.808;7.478;2023-07-31T11:33:45;100251.00;;;18.60
12854;BMP180;6495;51.808;7.478;2023-07-31T11:36:17;100241.00;;;18.70
12854;BMP180;6495;51.808;7.478;2023-07-31T11:38:46;100234.00;;;18.70
12854;BMP180;6495;51.808;7.478;2023-07-31T11:41:17;100245.00;;;18.70
12854;BMP180;6495;51.808;7.478;2023-07-31T11:43:46;100240.00;;;18.70
12854;BMP180;6495;51.808;7.478;2023-07-31T11:46:15;100239.00;;;18.80
12854;BMP180;6495;51.808;7.478;2023-07-31T11:48:43;100229.00;;;18.70
12854;BMP180;6495;51.808;7.478;2023-07-31T11:51:14;100231.00;;;18.80
12854;BMP180;6495;51.808;7.478;2023-07-31T11:53:45;100235.00;;;18.80
12854;BMP180;6495;51.808;7.478;2023-07-31T11:56:18;100228.00;;;18.90
12854;BMP180;6495;51.808;7.478;2023-07-31T11:58:50;100230.00;;;19.00
12854;BMP180;6495;51.808;7.478;2023-07-31T12:01:22;100221.00;;;19.00
12854;BMP180;6495;51.808;7.478;2023-07-31T12:03:52;100225.00;;;19.10
12854;BMP180;6495;51.808;7.478;2023-07-31T12:06:20;100231.00;;;19.20
12854;BMP180;6495;51.808;7.478;2023-07-31T12:08:48;100208.00;;;19.30
12854;BMP180;6495;51.808;7.478;2023-07-31T12:11:18;100209.00;;;19.30
12854;BMP180;6495;51.808;7.478;2023-07-31T12:13:46;100205.00;;;19.40
12854;BMP180;6495;51.808;7.478;2023-07-31T12:16:14;100228.00;;;19.50
12854;BMP180;6495;51.808;7.478;2023-07-31T12:18:42;100232.00;;;19.50
12854;BMP180;6495;51.808;7.478;2023-07-31T12:21:11;100237.00;;;19.60
12854;BMP180;6495;51.808;7.478;2023-07-31T12:23:40;100236.00;;;19.60
12854;BMP180;6495;51.808;7.478;2023-07-31T12:26:11;100231.00;;;19.70
12854;BMP180;6495;51.808;7.478;2023-07-31T12:28:44;100236.00;;;19.80
12854;BMP180;6495;51.808;7.478;2023-07-31T12:31:14;100240.00;;;19.80
12854;BMP180;6495;51.808;7.478;2023-07-31T12:33:45;100237.00;;;19.80
12854;BMP180;6495;51.808;7.478;2023-07-31T12:36:16;100240.00;;;19.90
12854;BMP180;6495;51.808;7.478;2023-07-31T12:38:45;100226.00;;;19.90
12854;BMP180;6495;51.808;7.478;2023-07-31T12:41:13;100223.00;;;19.90
12854;BMP180;6495;51.808;7.478;2023-07-31T12:43:45;100219.00;;;19.90
12854;BMP180;6495;51.808;7.478;2023-07-31T12:46:13;100224.00;;;19.90
12854;BMP180;6495;51.808;7.478;2023-07-31T12:48:41;100215.00;;;20.00
12854;BMP180;6495;51.808;7.478;2023-07-31T12:51:10;100222.00;;;20.10
12854;BMP180;6495;51.808;7.478;2023-07-31T12:53:38;100225.00;;;20.10
12854;BMP180;6495;51.808;7.478;2023-07-31T12:56:06;100233.00;;;20.10
12854;BMP180;6495;51.808;7.478;2023-07-31T12:58:34;100225.00;;;20.10
12854;BMP180;6495;51.808;7.478;2023-07-31T13:01:03;100214.00;;;20.10
12854;BMP180;6495;51.808;7.478;2023-07-31T13:03:33;100215.00;;;20.10
12854;BMP180;6495;51.808;7.478;2023-07-31T13:06:01;100208.00;;;20.10
12854;BMP180;6495;51.808;7.478;2023-07-31T13:08:29;100202.00;;;20.10
12854;BMP180;6495;51.808;7.478;2023-07-31T13:10:57;100195.00;;;20.20
12854;BMP180;6495;51.808;7.478;2023-07-31T13:13:25;100196.00;;;20.20
12854;BMP180;6495;51.808;7.478;2023-07-31T13:15:54;100187.00;;;20.20
12854;BMP180;6495;51.808;7.478;2023-07-31T13:18:24;100187.00;;;20.20
12854;BMP180;6495;51.808;7.478;2023-07-31T13:20:52;100177.00;;;20.20
12854;BMP180;6495;51.808;7.478;2023-07-31T13:23:20;100169.00;;;20.20
12854;BMP180;6495;51.808;7.478;2023-07-31T13:25:49;100169.00;;;20.20
12854;BMP180;6495;51.808;7.478;2023-07-31T13:28:17;100164.00;;;20.20
12854;BMP180;6495;51.808;7.478;2023-07-31T13:30:45;100165.00;;;20.20
12854;BMP180;6495;51.808;7.478;2023-07-31T13:33:14;100177.00;;;20.20
12854;BMP180;6495;51.808;7.478;2023-07-31T13:36:03;100179.00;;;20.20
12854;BMP180;6495;51.808;7.478;2023-07-31T13:38:32;100172.00;;;20.20
12854;BMP180;6495;51.808;7.478;2023-07-31T13:41:00;100173.00;;;20.20
12854;BMP180;6495;51.808;7.478;2023-07-31T13:43:28;100171.00;;;20.20
12854;BMP180;6495;51.808;7.478;2023-07-31T13:45:56;100161.00;;;20.20
12854;BMP180;6495;51.808;7.478;2023-07-31T13:48:24;100147.00;;;20.20
12854;BMP180;6495;51.808;7.478;2023-07-31T13:50:52;100147.00;;;20.20
12854;BMP180;6495;51.808;7.478;2023-07-31T13:53:21;100144.00;;;20.30
12854;BMP180;6495;51.808;7.478;2023-07-31T13:55:50;100144.00;;;20.20
12854;BMP180;6495;51.808;7.478;2023-07-31T13:58:18;100145.00;;;20.20
12854;BMP180;6495;51.808;7.478;2023-07-31T14:00:46;100157.00;;;20.20
12854;BMP180;6495;51.808;7.478;2023-07-31T14:03:14;100154.00;;;20.20
12854;BMP180;6495;51.808;7.478;2023-07-31T14:05:42;100157.00;;;20.20
12854;BMP180;6495;51.808;7.478;2023-07-31T14:08:11;100169.00;;;20.20
12854;BMP180;6495;51.808;7.478;2023-07-31T14:10:40;100167.00;;;20.20
12854;BMP180;6495;51.808;7.478;2023-07-31T14:13:09;100172.00;;;20.20
12854;BMP180;6495;51.808;7.478;2023-07-31T14:15:37;100169.00;;;20.20
12854;BMP180;6495;51.808;7.478;2023-07-31T14:18:05;100166.00;;;20.30
12854;BMP180;6495;51.808;7.478;2023-07-31T14:20:34;100164.00;;;20.30
12854;BMP180;6495;51.808;7.478;2023-07-31T14:23:02;100166.00;;;20.40
12854;BMP180;6495;51.808;7.478;2023-07-31T14:25:30;100163.00;;;20.40
12854;BMP180;6495;51.808;7.478;2023-07-31T14:28:00;100164.00;;;20.40
12854;BMP180;6495;51.808;7.478;2023-07-31T14:30:28;100153.00;;;20.40
12854;BMP180;6495;51.808;7.478;2023-07-31T14:32:56;100156.00;;;20.40
12854;BMP180;6495;51.808;7.478;2023-07-31T14:35:25;100153.00;;;20.40
12854;BMP180;6495;51.808;7.478;2023-07-31T14:37:53;100154.00;;;20.40
12854;BMP180;6495;51.808;7.478;2023-07-31T14:40:21;100159.00;;;20.40
12854;BMP180;6495;51.808;7.478;2023-07-31T14:42:49;100155.00;;;20.50
12854;BMP180;6495;51.808;7.478;2023-07-31T14:45:19;100149.00;;;20.50